Amanda Park, Washington
Current Conditions -  °F | °C
As of 2:53 PM on Friday 19 Dec 2014 (Local Time) from KHQM Reporting Station
Clear Clear  
Wind Chill:   Ceiling: Unl
Heat Index:   Visibility: 7mi
Dew Point:   Wind: 15mph
Humidity: 86%   Direction: 130°SE
Pressure: 29.92"   Gusts: NA
Location:  47.46°N, 123.89°W
Report Text: KHQM 192253Z AUTO 13013KT 7SM CLR 09/07 A2992 RMK AO2 SLP134 T00940072
Loading
Personal Weather Stations






























Interactive Weather Map New forecast layout! Learn more

10-Day Weather Forecast

Advertisements
Track Severe Weather on mobile